createdAt,value
2017-08-01T00:00:11.299Z,22.20
2017-08-01T00:02:39.565Z,22.10
2017-08-01T00:05:07.048Z,22.10
2017-08-01T00:07:34.541Z,22.10
2017-08-01T00:10:02.016Z,22.00
2017-08-01T00:12:29.515Z,21.80
2017-08-01T00:14:56.998Z,21.70
2017-08-01T00:17:24.500Z,21.70
2017-08-01T00:19:51.980Z,21.80
2017-08-01T00:22:19.469Z,21.70
2017-08-01T00:24:46.980Z,21.70
2017-08-01T00:27:14.476Z,21.70
2017-08-01T00:29:41.975Z,21.70
2017-08-01T00:32:09.487Z,21.70
2017-08-01T00:34:36.991Z,21.60
2017-08-01T00:37:04.472Z,21.50
2017-08-01T00:39:31.987Z,21.60
2017-08-01T00:41:59.502Z,21.60
2017-08-01T00:44:27.004Z,21.60
2017-08-01T00:46:54.501Z,21.70
2017-08-01T00:49:21.992Z,21.80
2017-08-01T00:51:49.503Z,21.90
2017-08-01T00:54:17.002Z,21.90
2017-08-01T00:56:44.507Z,21.80
2017-08-01T00:59:12.770Z,21.90
2017-08-01T01:01:40.340Z,21.80
2017-08-01T01:04:08.688Z,22.10
2017-08-01T01:06:36.182Z,22.10
2017-08-01T01:09:03.687Z,22.10
2017-08-01T01:11:31.170Z,22.20
2017-08-01T01:13:58.676Z,22.20
2017-08-01T01:16:26.154Z,22.30
2017-08-01T01:18:53.652Z,22.40
2017-08-01T01:21:21.153Z,22.40
2017-08-01T01:23:48.648Z,22.50
2017-08-01T01:26:16.192Z,22.50
2017-08-01T01:28:43.671Z,22.60
2017-08-01T01:31:11.164Z,22.60
2017-08-01T01:33:38.647Z,22.60
2017-08-01T01:36:06.646Z,22.50
2017-08-01T01:38:34.139Z,22.50
2017-08-01T01:41:01.640Z,22.40
2017-08-01T01:43:29.124Z,21.90
2017-08-01T01:45:56.623Z,21.90
2017-08-01T01:48:24.095Z,21.80
2017-08-01T01:50:51.596Z,21.40
2017-08-01T01:53:19.092Z,21.50
2017-08-01T01:55:46.591Z,21.30
2017-08-01T01:58:14.063Z,21.10
2017-08-01T02:00:41.572Z,21.00
2017-08-01T02:03:09.063Z,21.00
2017-08-01T02:05:36.571Z,20.70
2017-08-01T02:08:04.054Z,20.70
2017-08-01T02:10:31.567Z,20.50
2017-08-01T02:12:59.046Z,20.50
2017-08-01T02:15:26.560Z,20.50
2017-08-01T02:17:54.039Z,20.10
2017-08-01T02:20:21.551Z,20.10
2017-08-01T02:22:49.032Z,19.70
2017-08-01T02:25:17.284Z,19.50
2017-08-01T02:27:44.778Z,19.40
2017-08-01T02:30:12.256Z,19.60
2017-08-01T02:32:39.760Z,19.60
2017-08-01T02:35:07.230Z,19.50
2017-08-01T02:37:34.727Z,19.30
2017-08-01T02:40:02.204Z,19.20
2017-08-01T02:42:29.699Z,19.20
2017-08-01T02:44:57.951Z,18.90
2017-08-01T02:47:25.459Z,18.80
2017-08-01T02:49:52.974Z,19.00
2017-08-01T02:52:20.473Z,19.10
2017-08-01T02:54:47.974Z,18.70
2017-08-01T02:57:15.484Z,18.60
2017-08-01T02:59:42.963Z,18.60
2017-08-01T03:02:10.469Z,18.60
2017-08-01T03:04:37.953Z,18.50
2017-08-01T03:07:05.449Z,18.60
2017-08-01T03:09:32.954Z,18.70
2017-08-01T03:12:00.460Z,18.70
2017-08-01T03:14:27.944Z,18.70
2017-08-01T03:16:55.439Z,19.00
2017-08-01T03:19:22.927Z,19.20
2017-08-01T03:21:50.428Z,19.40
2017-08-01T03:24:17.912Z,19.50
2017-08-01T03:26:45.395Z,19.60
2017-08-01T03:29:12.882Z,19.70
2017-08-01T03:31:40.388Z,19.90
2017-08-01T03:34:07.895Z,20.00
2017-08-01T03:36:35.389Z,20.00
2017-08-01T03:39:02.887Z,20.20
2017-08-01T03:41:31.131Z,19.80
2017-08-01T03:43:58.640Z,19.70
2017-08-01T03:46:26.191Z,19.70
2017-08-01T03:48:53.696Z,19.80
2017-08-01T03:51:21.175Z,19.90
2017-08-01T03:53:48.692Z,19.90
2017-08-01T03:56:16.194Z,20.00
2017-08-01T03:58:43.693Z,20.20
2017-08-01T04:01:11.312Z,20.00
2017-08-01T04:03:39.068Z,20.10
2017-08-01T04:06:07.619Z,20.20
2017-08-01T04:08:35.231Z,20.30
2017-08-01T04:11:02.763Z,20.30
2017-08-01T04:13:30.278Z,20.40
2017-08-01T04:15:57.839Z,20.10
2017-08-01T04:18:25.402Z,20.00
2017-08-01T04:20:53.004Z,20.00
2017-08-01T04:23:20.560Z,20.20
2017-08-01T04:25:48.071Z,20.20
2017-08-01T04:28:15.597Z,19.70
2017-08-01T04:30:43.138Z,19.60
2017-08-01T04:33:10.632Z,19.80
2017-08-01T04:35:38.164Z,19.90
2017-08-01T04:38:05.749Z,19.60
2017-08-01T04:40:33.295Z,19.40
2017-08-01T04:43:00.775Z,19.30
2017-08-01T04:45:28.339Z,19.40
2017-08-01T04:47:55.836Z,19.30
2017-08-01T04:50:24.115Z,19.20
2017-08-01T04:52:51.612Z,19.10
2017-08-01T04:55:19.337Z,19.20
2017-08-01T04:57:46.910Z,19.20
2017-08-01T05:00:14.420Z,19.10
2017-08-01T05:02:41.903Z,19.10
2017-08-01T05:05:09.413Z,18.90
2017-08-01T05:07:36.910Z,19.00
2017-08-01T05:10:04.545Z,19.00
2017-08-01T05:12:32.045Z,19.10
2017-08-01T05:14:59.546Z,19.00
2017-08-01T05:17:27.023Z,18.90
2017-08-01T05:19:54.572Z,19.00
2017-08-01T05:22:22.084Z,19.10
2017-08-01T05:24:49.657Z,19.20
2017-08-01T05:27:17.172Z,19.20
2017-08-01T05:29:44.677Z,19.30
2017-08-01T05:32:12.182Z,19.40
2017-08-01T05:34:39.651Z,19.40
2017-08-01T05:37:07.189Z,19.50
2017-08-01T05:39:34.696Z,19.50
2017-08-01T05:42:02.211Z,19.60
2017-08-01T05:44:29.702Z,19.60
2017-08-01T05:46:57.265Z,19.70
2017-08-01T05:49:24.746Z,19.60
2017-08-01T05:51:52.280Z,19.70
2017-08-01T05:54:19.795Z,19.80
2017-08-01T05:56:47.316Z,19.70
2017-08-01T05:59:14.909Z,19.60
2017-08-01T06:01:42.446Z,19.70
2017-08-01T06:04:10.716Z,19.60
2017-08-01T06:06:38.233Z,19.60
2017-08-01T06:09:05.760Z,19.80
2017-08-01T06:11:33.286Z,20.00
2017-08-01T06:14:00.820Z,20.20
2017-08-01T06:16:28.638Z,20.40
2017-08-01T06:18:56.277Z,20.50
2017-08-01T06:21:24.543Z,20.80
2017-08-01T06:23:52.806Z,20.90
2017-08-01T06:26:21.513Z,20.90
2017-08-01T06:28:49.063Z,21.00
2017-08-01T06:31:16.629Z,21.10
2017-08-01T06:33:44.137Z,21.20
2017-08-01T06:36:11.796Z,21.30
2017-08-01T06:38:39.313Z,21.40
2017-08-01T06:41:06.828Z,21.50
2017-08-01T06:43:35.121Z,21.60
2017-08-01T06:46:02.940Z,21.60
2017-08-01T06:48:31.216Z,21.80
2017-08-01T06:50:58.711Z,21.70
2017-08-01T06:53:26.202Z,21.80
2017-08-01T06:55:53.698Z,21.90
2017-08-01T06:58:21.257Z,21.90
2017-08-01T07:00:48.740Z,21.80
2017-08-01T07:03:16.256Z,22.00
2017-08-01T07:05:44.518Z,22.20
2017-08-01T07:08:12.043Z,22.10
2017-08-01T07:10:39.529Z,21.90
2017-08-01T07:13:07.062Z,21.70
2017-08-01T07:15:34.561Z,21.40
2017-08-01T07:18:02.086Z,21.50
2017-08-01T07:20:29.570Z,21.80
2017-08-01T07:22:57.074Z,21.80
2017-08-01T07:25:24.560Z,22.10
2017-08-01T07:27:52.842Z,22.20
2017-08-01T07:30:20.337Z,22.20
2017-08-01T07:32:47.839Z,22.20
2017-08-01T07:35:15.352Z,22.40
2017-08-01T07:37:42.853Z,22.60
2017-08-01T07:40:10.369Z,22.10
2017-08-01T07:42:37.851Z,22.10
2017-08-01T07:45:05.351Z,21.80
2017-08-01T07:47:32.826Z,21.90
2017-08-01T07:50:00.327Z,22.00
2017-08-01T07:52:27.803Z,22.20
2017-08-01T07:54:55.308Z,22.20
2017-08-01T07:57:22.783Z,21.80
2017-08-01T07:59:50.283Z,21.70
2017-08-01T08:02:17.780Z,21.80
2017-08-01T08:04:45.297Z,22.20
2017-08-01T08:07:12.781Z,22.40
2017-08-01T08:09:40.279Z,22.80
2017-08-01T08:12:07.765Z,23.20
2017-08-01T08:14:35.271Z,23.40
2017-08-01T08:17:02.773Z,23.20
2017-08-01T08:19:30.270Z,22.90
2017-08-01T08:21:57.760Z,23.10
2017-08-01T08:24:25.247Z,23.10
2017-08-01T08:26:52.724Z,23.20
2017-08-01T08:29:20.257Z,23.50
2017-08-01T08:31:47.797Z,23.90
2017-08-01T08:34:15.269Z,24.00
2017-08-01T08:36:43.546Z,24.20
2017-08-01T08:39:11.064Z,24.10
2017-08-01T08:41:39.327Z,24.20
2017-08-01T08:44:07.567Z,24.40
2017-08-01T08:46:35.063Z,24.30
2017-08-01T08:49:02.556Z,24.40
2017-08-01T08:51:30.058Z,24.40
2017-08-01T08:53:57.552Z,24.70
2017-08-01T08:56:25.058Z,25.20
2017-08-01T08:58:52.544Z,25.70
2017-08-01T09:01:20.044Z,26.20
2017-08-01T09:03:47.520Z,26.70
2017-08-01T09:06:15.022Z,27.40
2017-08-01T09:08:42.507Z,27.90
2017-08-01T09:11:10.775Z,28.80
2017-08-01T09:13:39.039Z,29.20
2017-08-01T09:16:06.548Z,29.10
2017-08-01T09:18:34.031Z,29.00
2017-08-01T09:21:01.537Z,28.80
2017-08-01T09:23:29.018Z,28.70
2017-08-01T09:25:56.521Z,28.60
2017-08-01T09:28:23.999Z,27.50
2017-08-01T09:30:51.496Z,27.50
2017-08-01T09:33:18.972Z,28.60
2017-08-01T09:35:47.217Z,27.30
2017-08-01T09:38:14.724Z,27.30
2017-08-01T09:40:42.199Z,28.40
2017-08-01T09:43:09.703Z,27.50
2017-08-01T09:45:37.189Z,28.40
2017-08-01T09:48:04.696Z,29.30
2017-08-01T09:50:32.173Z,29.40
2017-08-01T09:53:00.444Z,27.50
2017-08-01T09:55:28.695Z,27.30
2017-08-01T09:57:56.195Z,27.30
2017-08-01T10:00:23.671Z,26.80
2017-08-01T10:02:51.183Z,26.50
2017-08-01T10:05:18.681Z,26.50
2017-08-01T10:07:46.242Z,27.40
2017-08-01T10:10:13.812Z,27.80
2017-08-01T10:12:41.315Z,28.20
2017-08-01T10:15:08.791Z,27.80
2017-08-01T10:17:36.298Z,28.00
2017-08-01T10:20:04.544Z,30.10
2017-08-01T10:22:32.811Z,31.20
2017-08-01T10:25:01.060Z,30.50
2017-08-01T10:27:28.563Z,30.40
2017-08-01T10:29:56.045Z,30.60
2017-08-01T10:32:23.545Z,31.00
2017-08-01T10:34:51.031Z,31.80
2017-08-01T10:37:18.520Z,32.70
2017-08-01T10:39:46.019Z,33.20
2017-08-01T10:42:14.261Z,30.70
2017-08-01T10:44:41.763Z,30.60
2017-08-01T10:47:09.253Z,31.20
2017-08-01T10:49:36.751Z,31.00
2017-08-01T10:52:04.229Z,29.50
2017-08-01T10:54:31.723Z,27.10
2017-08-01T10:56:59.206Z,27.50
2017-08-01T10:59:26.707Z,27.40
2017-08-01T11:01:54.190Z,27.80
2017-08-01T11:04:21.693Z,27.90
2017-08-01T11:06:49.167Z,28.10
2017-08-01T11:09:16.659Z,28.00
2017-08-01T11:11:44.908Z,27.90
2017-08-01T11:14:12.413Z,27.80
2017-08-01T11:16:39.891Z,27.80
2017-08-01T11:19:08.152Z,27.50
2017-08-01T11:21:36.408Z,26.70
2017-08-01T11:24:04.667Z,27.00
2017-08-01T11:26:32.916Z,27.20
2017-08-01T11:29:00.407Z,27.10
2017-08-01T11:31:27.882Z,27.30
2017-08-01T11:33:55.352Z,27.40
2017-08-01T11:36:23.623Z,27.70
2017-08-01T11:38:51.867Z,27.80
2017-08-01T11:41:19.368Z,27.80
2017-08-01T11:43:46.842Z,27.90
2017-08-01T11:46:14.665Z,27.90
2017-08-01T11:48:42.157Z,27.90
2017-08-01T11:51:10.416Z,27.90
2017-08-01T11:53:37.890Z,27.80
2017-08-01T11:56:05.388Z,27.90
2017-08-01T11:58:33.717Z,28.00
2017-08-01T12:01:01.212Z,28.00
2017-08-01T12:03:29.464Z,28.00
2017-08-01T12:05:56.972Z,27.90
2017-08-01T12:08:24.697Z,27.90
2017-08-01T12:10:52.190Z,27.70
2017-08-01T12:13:20.436Z,27.80
2017-08-01T12:15:47.956Z,27.70
2017-08-01T12:18:15.439Z,27.80
2017-08-01T12:20:43.717Z,27.70
2017-08-01T12:23:11.204Z,27.70
2017-08-01T12:25:38.728Z,27.80
2017-08-01T12:28:06.216Z,27.80
2017-08-01T12:30:33.716Z,27.80
2017-08-01T12:33:01.197Z,27.70
2017-08-01T12:35:28.703Z,27.70
2017-08-01T12:37:56.183Z,27.60
2017-08-01T12:40:23.675Z,27.60
2017-08-01T12:42:51.174Z,27.60
2017-08-01T12:45:18.663Z,27.60
2017-08-01T12:47:46.163Z,27.60
2017-08-01T12:50:14.412Z,27.70
2017-08-01T12:52:41.908Z,27.60
2017-08-01T12:55:09.398Z,27.70
2017-08-01T12:57:36.903Z,27.70
2017-08-01T13:00:04.388Z,27.70
2017-08-01T13:02:31.897Z,27.70
2017-08-01T13:04:59.480Z,27.60
2017-08-01T13:07:26.987Z,27.40
2017-08-01T13:09:54.468Z,27.20
2017-08-01T13:12:22.730Z,27.00
2017-08-01T13:14:50.999Z,26.90
2017-08-01T13:17:18.499Z,26.80
2017-08-01T13:19:46.128Z,26.70
2017-08-01T13:22:13.619Z,26.70
2017-08-01T13:24:41.104Z,26.60
2017-08-01T13:27:08.599Z,26.50
2017-08-01T13:29:36.847Z,26.40
2017-08-01T13:32:04.351Z,26.40
2017-08-01T13:34:31.836Z,26.30
2017-08-01T13:36:59.320Z,26.20
2017-08-01T13:39:26.835Z,26.20
2017-08-01T13:41:55.147Z,25.90
2017-08-01T13:44:22.640Z,25.80
2017-08-01T13:46:50.892Z,25.80
2017-08-01T13:49:19.160Z,25.70
2017-08-01T13:51:46.652Z,25.60
2017-08-01T13:54:14.173Z,25.60
2017-08-01T13:56:41.676Z,25.50
2017-08-01T13:59:09.173Z,25.50
2017-08-01T14:01:36.672Z,25.40
2017-08-01T14:04:04.258Z,25.40
2017-08-01T14:06:31.771Z,25.50
2017-08-01T14:08:59.296Z,25.20
2017-08-01T14:11:27.552Z,23.70
2017-08-01T14:13:55.091Z,23.70
2017-08-01T14:16:22.575Z,23.60
2017-08-01T14:18:50.071Z,23.60
2017-08-01T14:21:17.552Z,23.60
2017-08-01T14:23:45.057Z,23.50
2017-08-01T14:26:12.539Z,23.40
2017-08-01T14:28:40.032Z,23.50
2017-08-01T14:31:07.515Z,23.30
2017-08-01T14:33:35.041Z,22.80
2017-08-01T14:36:02.587Z,22.20
2017-08-01T14:38:30.093Z,22.40
2017-08-01T14:40:57.644Z,22.30
2017-08-01T14:43:25.128Z,22.30
2017-08-01T14:45:52.639Z,22.50
2017-08-01T14:48:20.135Z,22.70
2017-08-01T14:50:47.675Z,22.30
2017-08-01T14:53:15.173Z,22.20
2017-08-01T14:55:42.683Z,22.40
2017-08-01T14:58:10.159Z,22.50
2017-08-01T15:00:37.662Z,22.60
2017-08-01T15:03:05.144Z,22.70
2017-08-01T15:05:32.656Z,22.80
2017-08-01T15:08:00.162Z,22.70
2017-08-01T15:10:27.702Z,22.50
2017-08-01T15:12:55.212Z,22.40
2017-08-01T15:15:22.718Z,22.30
2017-08-01T15:17:50.195Z,22.30
2017-08-01T15:20:17.701Z,22.40
2017-08-01T15:22:45.478Z,22.40
2017-08-01T15:25:13.012Z,22.20
2017-08-01T15:27:40.520Z,22.10
2017-08-01T15:30:09.092Z,22.10
2017-08-01T15:32:36.588Z,22.20
2017-08-01T15:35:04.120Z,22.30
2017-08-01T15:37:33.342Z,22.30
2017-08-01T15:40:00.856Z,22.20
2017-08-01T15:42:28.368Z,22.10
2017-08-01T15:44:55.846Z,22.00
2017-08-01T15:47:23.385Z,22.10
2017-08-01T15:49:50.876Z,22.00
2017-08-01T15:52:18.391Z,22.10
2017-08-01T15:54:45.910Z,22.20
2017-08-01T15:57:13.416Z,22.10
2017-08-01T15:59:40.904Z,22.30
2017-08-01T16:02:08.483Z,22.50
2017-08-01T16:04:35.972Z,22.70
2017-08-01T16:07:03.475Z,22.80
2017-08-01T16:09:30.952Z,23.00
2017-08-01T16:11:58.452Z,23.10
2017-08-01T16:14:25.928Z,23.10
2017-08-01T16:16:53.429Z,23.20
2017-08-01T16:19:20.919Z,23.30
2017-08-01T16:21:48.429Z,23.40
2017-08-01T16:24:15.925Z,23.50
2017-08-01T16:26:43.486Z,23.50
2017-08-01T16:29:11.003Z,23.60
2017-08-01T16:31:38.534Z,23.50
2017-08-01T16:34:06.032Z,23.30
2017-08-01T16:36:33.580Z,23.50
2017-08-01T16:39:01.071Z,23.60
2017-08-01T16:41:28.562Z,23.70
2017-08-01T16:43:56.096Z,23.70
2017-08-01T16:46:23.586Z,23.70
2017-08-01T16:48:51.099Z,23.80
2017-08-01T16:51:18.597Z,23.90
2017-08-01T16:53:46.254Z,24.00
2017-08-01T16:56:14.532Z,23.80
2017-08-01T16:58:42.041Z,23.80
2017-08-01T17:01:09.557Z,23.60
2017-08-01T17:03:37.097Z,23.50
2017-08-01T17:06:04.614Z,23.30
2017-08-01T17:08:32.144Z,23.20
2017-08-01T17:10:59.658Z,23.10
2017-08-01T17:13:27.197Z,23.40
2017-08-01T17:15:54.703Z,23.60
2017-08-01T17:18:22.297Z,23.60
2017-08-01T17:20:49.800Z,23.80
2017-08-01T17:23:17.343Z,23.80
2017-08-01T17:25:44.945Z,23.90
2017-08-01T17:28:12.530Z,24.00
2017-08-01T17:30:40.034Z,24.00
2017-08-01T17:33:07.576Z,24.00
2017-08-01T17:35:35.076Z,24.10
2017-08-01T17:38:02.598Z,24.10
2017-08-01T17:40:30.115Z,24.20
2017-08-01T17:42:57.630Z,24.20
2017-08-01T17:45:25.183Z,24.20
2017-08-01T17:47:52.684Z,24.20
2017-08-01T17:50:20.200Z,24.20
2017-08-01T17:52:47.689Z,24.20
2017-08-01T17:55:15.207Z,24.10
2017-08-01T17:57:42.717Z,24.10
2017-08-01T18:00:10.240Z,24.10
2017-08-01T18:02:37.719Z,24.20
2017-08-01T18:05:05.291Z,24.00
2017-08-01T18:07:32.838Z,23.80
2017-08-01T18:10:00.344Z,23.70
2017-08-01T18:12:27.871Z,23.60
2017-08-01T18:14:55.396Z,23.70
2017-08-01T18:17:23.640Z,23.30
2017-08-01T18:19:51.912Z,23.40
2017-08-01T18:22:20.191Z,23.50
2017-08-01T18:24:47.726Z,23.50
2017-08-01T18:27:15.282Z,23.60
2017-08-01T18:29:42.792Z,23.60
2017-08-01T18:32:10.282Z,23.60
2017-08-01T18:34:37.800Z,23.60
2017-08-01T18:37:05.299Z,23.70
2017-08-01T18:39:32.836Z,23.80
2017-08-01T18:42:00.336Z,23.80
2017-08-01T18:44:27.873Z,23.90
2017-08-01T18:46:55.392Z,24.00
2017-08-01T18:49:23.635Z,24.00
2017-08-01T18:51:51.166Z,23.90
2017-08-01T18:54:18.665Z,24.00
2017-08-01T18:56:46.213Z,24.00
2017-08-01T18:59:14.193Z,23.90
2017-08-01T19:01:41.968Z,24.00
2017-08-01T19:04:09.463Z,24.10
2017-08-01T19:06:37.022Z,24.10
2017-08-01T19:09:04.813Z,24.00
2017-08-01T19:11:33.521Z,24.10
2017-08-01T19:14:01.380Z,23.90
2017-08-01T19:16:28.987Z,23.20
2017-08-01T19:18:56.517Z,23.30
2017-08-01T19:21:24.889Z,23.40
2017-08-01T19:23:52.427Z,23.40
2017-08-01T19:26:20.042Z,23.50
2017-08-01T19:28:48.455Z,23.10
2017-08-01T19:31:16.101Z,22.90
2017-08-01T19:33:43.888Z,22.90
2017-08-01T19:36:11.436Z,23.10
2017-08-01T19:38:38.928Z,23.10
2017-08-01T19:41:06.456Z,23.00
2017-08-01T19:43:33.952Z,23.20
2017-08-01T19:46:01.433Z,23.30
2017-08-01T19:48:28.928Z,23.00
2017-08-01T19:50:56.414Z,22.80
2017-08-01T19:53:23.931Z,22.50
2017-08-01T19:55:51.412Z,22.50
2017-08-01T19:58:18.919Z,22.50
2017-08-01T20:00:46.393Z,22.50
2017-08-01T20:03:13.895Z,22.50
2017-08-01T20:05:41.379Z,22.40
2017-08-01T20:08:08.886Z,22.40
2017-08-01T20:10:36.366Z,22.60
2017-08-01T20:13:03.877Z,22.70
2017-08-01T20:15:31.357Z,22.80
2017-08-01T20:17:58.865Z,22.80
2017-08-01T20:20:26.352Z,22.90
2017-08-01T20:22:54.793Z,22.90
2017-08-01T20:25:23.067Z,23.00
2017-08-01T20:27:50.566Z,23.00
2017-08-01T20:30:18.050Z,23.10
2017-08-01T20:32:45.597Z,23.20
2017-08-01T20:35:13.083Z,22.90
2017-08-01T20:37:41.453Z,22.50
2017-08-01T20:40:08.973Z,22.10
2017-08-01T20:42:36.543Z,21.90
2017-08-01T20:45:04.023Z,22.00
2017-08-01T20:47:31.504Z,21.80
2017-08-01T20:49:59.008Z,21.70
2017-08-01T20:52:26.518Z,21.50
2017-08-01T20:54:54.012Z,21.70
2017-08-01T20:57:22.258Z,21.80
2017-08-01T20:59:49.768Z,21.80
2017-08-01T21:02:17.264Z,21.90
2017-08-01T21:04:45.536Z,21.40
2017-08-01T21:07:13.016Z,21.30
2017-08-01T21:09:40.515Z,21.50
2017-08-01T21:12:07.991Z,21.40
2017-08-01T21:14:35.499Z,21.40
2017-08-01T21:17:02.977Z,21.40
2017-08-01T21:19:30.479Z,21.60
2017-08-01T21:21:58.727Z,21.80
2017-08-01T21:24:27.011Z,21.90
2017-08-01T21:26:54.492Z,21.90
2017-08-01T21:29:22.000Z,22.00
2017-08-01T21:31:49.483Z,22.10
2017-08-01T21:34:16.981Z,22.10
2017-08-01T21:36:44.473Z,22.20
2017-08-01T21:39:11.980Z,22.30
2017-08-01T21:41:39.472Z,22.30
2017-08-01T21:44:06.976Z,22.40
2017-08-01T21:46:34.455Z,22.40
2017-08-01T21:49:01.940Z,22.40
2017-08-01T21:51:29.435Z,22.40
2017-08-01T21:53:56.913Z,22.40
2017-08-01T21:56:24.429Z,22.30
2017-08-01T21:58:52.685Z,22.40
2017-08-01T22:01:20.195Z,22.40
2017-08-01T22:03:47.731Z,22.50
2017-08-01T22:06:15.279Z,22.30
2017-08-01T22:08:42.757Z,22.00
2017-08-01T22:11:10.264Z,21.80
2017-08-01T22:13:37.747Z,21.80
2017-08-01T22:16:05.249Z,21.90
2017-08-01T22:18:32.732Z,21.90
2017-08-01T22:21:00.233Z,21.90
2017-08-01T22:23:27.708Z,21.80
2017-08-01T22:25:55.208Z,21.90
2017-08-01T22:28:22.685Z,21.80
2017-08-01T22:30:50.309Z,21.70
2017-08-01T22:33:17.783Z,21.20
2017-08-01T22:35:45.302Z,21.40
2017-08-01T22:38:12.787Z,21.50
2017-08-01T22:40:41.055Z,21.70
2017-08-01T22:43:08.528Z,21.60
2017-08-01T22:45:36.031Z,21.50
2017-08-01T22:48:03.511Z,21.50
2017-08-01T22:50:31.016Z,21.40
2017-08-01T22:52:59.260Z,21.10
2017-08-01T22:55:26.732Z,21.00
2017-08-01T22:57:54.237Z,21.10
2017-08-01T23:00:21.720Z,21.00
2017-08-01T23:02:49.237Z,21.00
2017-08-01T23:05:17.484Z,21.00
2017-08-01T23:07:44.980Z,21.00
2017-08-01T23:10:12.461Z,21.30
2017-08-01T23:12:39.951Z,21.40
2017-08-01T23:15:07.420Z,21.20
2017-08-01T23:17:34.911Z,21.20
2017-08-01T23:20:03.167Z,21.30
2017-08-01T23:22:31.432Z,21.30
2017-08-01T23:24:59.676Z,21.20
2017-08-01T23:27:27.175Z,21.20
2017-08-01T23:29:54.657Z,21.20
2017-08-01T23:32:22.169Z,21.40
2017-08-01T23:34:49.660Z,21.40
2017-08-01T23:37:17.927Z,21.60
2017-08-01T23:39:45.440Z,21.50
2017-08-01T23:42:12.931Z,21.40
2017-08-01T23:44:40.411Z,21.30
2017-08-01T23:47:07.907Z,21.40
2017-08-01T23:49:35.383Z,21.40
2017-08-01T23:52:02.879Z,21.40
2017-08-01T23:54:31.123Z,21.50
2017-08-01T23:56:58.624Z,21.50
2017-08-01T23:59:26.103Z,21.40
